sensor_id;sensor_type;location;lat;lon;timestamp;pressure;altitude;pressure_sealevel;temperature;humidity
10732;BME280;74907;42.812;23.216;2024-03-08T00:01:35;95528.53;;;5.59;87.19
10732;BME280;74907;42.812;23.216;2024-03-08T00:04:05;95525.50;;;5.50;87.11
10732;BME280;74907;42.812;23.216;2024-03-08T00:06:32;95534.03;;;5.52;88.08
10732;BME280;74907;42.812;23.216;2024-03-08T00:08:59;95533.31;;;5.48;88.85
10732;BME280;74907;42.812;23.216;2024-03-08T00:11:26;95530.88;;;5.45;89.20
10732;BME280;74907;42.812;23.216;2024-03-08T00:13:53;95532.63;;;5.45;89.47
10732;BME280;74907;42.812;23.216;2024-03-08T00:16:21;95541.69;;;5.53;88.65
10732;BME280;74907;42.812;23.216;2024-03-08T00:18:48;95533.75;;;5.58;89.35
10732;BME280;74907;42.812;23.216;2024-03-08T00:21:15;95533.63;;;5.61;89.62
10732;BME280;74907;42.812;23.216;2024-03-08T00:23:42;95536.63;;;5.70;89.05
10732;BME280;74907;42.812;23.216;2024-03-08T00:26:08;95534.94;;;5.69;89.10
10732;BME280;74907;42.812;23.216;2024-03-08T00:28:35;95522.44;;;5.81;89.69
10732;BME280;74907;42.812;23.216;2024-03-08T00:31:02;95531.28;;;5.75;88.66
10732;BME280;74907;42.812;23.216;2024-03-08T00:33:30;95530.38;;;5.76;89.60
10732;BME280;74907;42.812;23.216;2024-03-08T00:35:57;95529.84;;;5.68;89.73
10732;BME280;74907;42.812;23.216;2024-03-08T00:38:24;95522.19;;;5.66;90.47
10732;BME280;74907;42.812;23.216;2024-03-08T00:40:51;95527.41;;;5.65;91.22
10732;BME280;74907;42.812;23.216;2024-03-08T00:43:17;95529.16;;;5.64;90.75
10732;BME280;74907;42.812;23.216;2024-03-08T00:45:44;95523.28;;;5.61;91.42
10732;BME280;74907;42.812;23.216;2024-03-08T00:48:11;95520.00;;;5.57;91.05
10732;BME280;74907;42.812;23.216;2024-03-08T00:50:39;95517.81;;;5.48;90.45
10732;BME280;74907;42.812;23.216;2024-03-08T00:53:05;95512.66;;;5.48;90.70
10732;BME280;74907;42.812;23.216;2024-03-08T00:55:32;95508.06;;;5.55;90.72
10732;BME280;74907;42.812;23.216;2024-03-08T00:58:00;95509.66;;;5.57;89.22
10732;BME280;74907;42.812;23.216;2024-03-08T01:00:27;95503.06;;;5.70;88.88
10732;BME280;74907;42.812;23.216;2024-03-08T01:02:54;95502.81;;;5.77;88.72
10732;BME280;74907;42.812;23.216;2024-03-08T01:05:21;95500.00;;;5.81;88.04
10732;BME280;74907;42.812;23.216;2024-03-08T01:07:50;95500.72;;;5.85;88.06
10732;BME280;74907;42.812;23.216;2024-03-08T01:10:17;95499.44;;;5.75;88.25
10732;BME280;74907;42.812;23.216;2024-03-08T01:12:43;95489.44;;;5.67;88.96
10732;BME280;74907;42.812;23.216;2024-03-08T01:15:10;95498.78;;;5.51;88.43
10732;BME280;74907;42.812;23.216;2024-03-08T01:17:37;95494.78;;;5.44;89.16
10732;BME280;74907;42.812;23.216;2024-03-08T01:20:05;95498.22;;;5.44;89.12
10732;BME280;74907;42.812;23.216;2024-03-08T01:22:32;95498.22;;;5.44;89.58
10732;BME280;74907;42.812;23.216;2024-03-08T01:25:00;95494.28;;;5.35;90.37
10732;BME280;74907;42.812;23.216;2024-03-08T01:27:26;95493.53;;;5.33;90.73
10732;BME280;74907;42.812;23.216;2024-03-08T01:29:53;95493.53;;;5.33;90.67
10732;BME280;74907;42.812;23.216;2024-03-08T01:32:20;95493.53;;;5.33;91.53
10732;BME280;74907;42.812;23.216;2024-03-08T01:34:48;95481.59;;;5.31;91.70
10732;BME280;74907;42.812;23.216;2024-03-08T01:37:15;95483.31;;;5.30;91.52
10732;BME280;74907;42.812;23.216;2024-03-08T01:39:41;95484.94;;;5.33;92.19
10732;BME280;74907;42.812;23.216;2024-03-08T01:42:10;95488.34;;;5.33;92.29
10732;BME280;74907;42.812;23.216;2024-03-08T01:44:38;95483.91;;;5.37;92.69
10732;BME280;74907;42.812;23.216;2024-03-08T01:47:06;95476.78;;;5.42;92.45
10732;BME280;74907;42.812;23.216;2024-03-08T01:49:33;95480.22;;;5.43;91.70
10732;BME280;74907;42.812;23.216;2024-03-08T01:52:00;95471.63;;;5.42;92.23
10732;BME280;74907;42.812;23.216;2024-03-08T01:54:27;95462.97;;;5.43;91.98
10732;BME280;74907;42.812;23.216;2024-03-08T01:56:55;95461.28;;;5.42;92.35
10732;BME280;74907;42.812;23.216;2024-03-08T01:59:25;95459.47;;;5.44;92.55
10732;BME280;74907;42.812;23.216;2024-03-08T02:01:55;95464.84;;;5.39;93.08
10732;BME280;74907;42.812;23.216;2024-03-08T02:04:24;95470.09;;;5.38;93.23
10732;BME280;74907;42.812;23.216;2024-03-08T02:06:51;95470.09;;;5.38;93.69
10732;BME280;74907;42.812;23.216;2024-03-08T02:09:18;95464.00;;;5.39;93.84
10732;BME280;74907;42.812;23.216;2024-03-08T02:11:45;95464.00;;;5.39;93.12
10732;BME280;74907;42.812;23.216;2024-03-08T02:14:12;95457.94;;;5.40;93.54
10732;BME280;74907;42.812;23.216;2024-03-08T02:16:41;95468.28;;;5.40;93.08
10732;BME280;74907;42.812;23.216;2024-03-08T02:19:07;95463.09;;;5.40;93.19
10732;BME280;74907;42.812;23.216;2024-03-08T02:21:36;95462.91;;;5.45;92.98
10732;BME280;74907;42.812;23.216;2024-03-08T02:24:04;95461.16;;;5.45;92.94
10732;BME280;74907;42.812;23.216;2024-03-08T02:26:31;95461.09;;;5.47;92.73
10732;BME280;74907;42.812;23.216;2024-03-08T02:28:57;95475.75;;;5.46;92.67
10732;BME280;74907;42.812;23.216;2024-03-08T02:31:24;95461.28;;;5.42;92.84
10732;BME280;74907;42.812;23.216;2024-03-08T02:33:51;95458.72;;;5.42;92.04
10732;BME280;74907;42.812;23.216;2024-03-08T02:36:17;95469.25;;;5.37;92.03
10732;BME280;74907;42.812;23.216;2024-03-08T02:38:45;95469.38;;;5.34;91.59
10732;BME280;74907;42.812;23.216;2024-03-08T02:41:12;95466.09;;;5.31;91.24
10732;BME280;74907;42.812;23.216;2024-03-08T02:43:39;95472.88;;;5.33;91.12
10732;BME280;74907;42.812;23.216;2024-03-08T02:46:06;95472.66;;;5.38;91.01
10732;BME280;74907;42.812;23.216;2024-03-08T02:48:32;95466.53;;;5.41;90.76
10732;BME280;74907;42.812;23.216;2024-03-08T02:50:59;95471.91;;;5.36;90.30
10732;BME280;74907;42.812;23.216;2024-03-08T02:53:27;95478.72;;;5.37;90.25
10732;BME280;74907;42.812;23.216;2024-03-08T02:55:55;95476.84;;;5.41;89.19
10732;BME280;74907;42.812;23.216;2024-03-08T02:58:22;95478.81;;;5.35;88.91
10732;BME280;74907;42.812;23.216;2024-03-08T03:00:49;95468.69;;;5.31;87.68
10732;BME280;74907;42.812;23.216;2024-03-08T03:03:16;95474.75;;;5.30;88.03
10732;BME280;74907;42.812;23.216;2024-03-08T03:05:42;95472.38;;;5.25;88.13
10732;BME280;74907;42.812;23.216;2024-03-08T03:08:09;95471.66;;;5.22;87.75
10732;BME280;74907;42.812;23.216;2024-03-08T03:10:37;95477.97;;;5.15;88.05
10732;BME280;74907;42.812;23.216;2024-03-08T03:13:05;95477.00;;;5.17;87.92
10732;BME280;74907;42.812;23.216;2024-03-08T03:15:32;95475.44;;;5.13;88.67
10732;BME280;74907;42.812;23.216;2024-03-08T03:17:59;95478.22;;;5.08;89.40
10732;BME280;74907;42.812;23.216;2024-03-08T03:20:25;95486.75;;;5.11;90.09
10732;BME280;74907;42.812;23.216;2024-03-08T03:22:57;95485.34;;;5.24;90.65
10732;BME280;74907;42.812;23.216;2024-03-08T03:25:26;95489.72;;;5.22;90.58
10732;BME280;74907;42.812;23.216;2024-03-08T03:27:58;95505.47;;;5.36;90.79
10732;BME280;74907;42.812;23.216;2024-03-08T03:30:26;95498.06;;;5.47;89.92
10732;BME280;74907;42.812;23.216;2024-03-08T03:32:58;95499.69;;;5.50;89.15
10732;BME280;74907;42.812;23.216;2024-03-08T03:35:26;95497.31;;;5.45;89.77
10732;BME280;74907;42.812;23.216;2024-03-08T03:37:53;95497.09;;;5.50;90.33
10732;BME280;74907;42.812;23.216;2024-03-08T03:40:27;95510.72;;;5.53;89.55
10732;BME280;74907;42.812;23.216;2024-03-08T03:42:54;95511.63;;;5.52;89.77
10732;BME280;74907;42.812;23.216;2024-03-08T03:45:21;95512.94;;;5.42;90.24
10732;BME280;74907;42.812;23.216;2024-03-08T03:47:49;95521.59;;;5.41;90.41
10732;BME280;74907;42.812;23.216;2024-03-08T03:50:17;95527.97;;;5.32;91.37
10732;BME280;74907;42.812;23.216;2024-03-08T03:52:44;95535.28;;;5.23;91.54
10732;BME280;74907;42.812;23.216;2024-03-08T03:55:12;95523.22;;;5.23;91.17
10732;BME280;74907;42.812;23.216;2024-03-08T03:57:38;95533.66;;;5.20;91.74
10732;BME280;74907;42.812;23.216;2024-03-08T04:00:06;95532.56;;;5.26;90.47
10732;BME280;74907;42.812;23.216;2024-03-08T04:02:36;95535.91;;;5.28;90.43
10732;BME280;74907;42.812;23.216;2024-03-08T04:05:05;95540.81;;;5.14;90.63
10732;BME280;74907;42.812;23.216;2024-03-08T04:07:33;95541.34;;;5.22;90.74
10732;BME280;74907;42.812;23.216;2024-03-08T04:10:00;95547.56;;;5.16;90.41
10732;BME280;74907;42.812;23.216;2024-03-08T04:12:27;95549.84;;;5.03;90.02
10732;BME280;74907;42.812;23.216;2024-03-08T04:14:55;95550.41;;;4.90;90.56
10732;BME280;74907;42.812;23.216;2024-03-08T04:17:22;95557.63;;;4.82;90.63
10732;BME280;74907;42.812;23.216;2024-03-08T04:19:49;95549.09;;;4.58;89.59
10732;BME280;74907;42.812;23.216;2024-03-08T04:22:17;95557.91;;;4.52;88.13
10732;BME280;74907;42.812;23.216;2024-03-08T04:24:45;95549.66;;;4.44;86.63
10732;BME280;74907;42.812;23.216;2024-03-08T04:27:12;95554.97;;;4.39;85.51
10732;BME280;74907;42.812;23.216;2024-03-08T04:29:40;95556.97;;;4.33;85.07
10732;BME280;74907;42.812;23.216;2024-03-08T04:32:07;95557.91;;;4.30;85.02
10732;BME280;74907;42.812;23.216;2024-03-08T04:34:34;95563.84;;;4.32;84.44
10732;BME280;74907;42.812;23.216;2024-03-08T04:37:01;95561.22;;;4.34;84.52
10732;BME280;74907;42.812;23.216;2024-03-08T04:39:29;95567.22;;;4.34;84.36
10732;BME280;74907;42.812;23.216;2024-03-08T04:41:58;95567.28;;;4.33;83.67
10732;BME280;74907;42.812;23.216;2024-03-08T04:44:25;95574.34;;;4.28;84.14
10732;BME280;74907;42.812;23.216;2024-03-08T04:46:52;95565.09;;;4.22;83.72
10732;BME280;74907;42.812;23.216;2024-03-08T04:49:19;95570.31;;;4.21;84.30
10732;BME280;74907;42.812;23.216;2024-03-08T04:51:47;95566.91;;;4.20;84.37
10732;BME280;74907;42.812;23.216;2024-03-08T04:54:13;95570.44;;;4.18;84.85
10732;BME280;74907;42.812;23.216;2024-03-08T04:56:41;95571.38;;;4.15;84.94
10732;BME280;74907;42.812;23.216;2024-03-08T04:59:08;95579.22;;;4.12;84.95
10732;BME280;74907;42.812;23.216;2024-03-08T05:01:35;95586.16;;;4.10;85.27
10732;BME280;74907;42.812;23.216;2024-03-08T05:04:03;95587.09;;;4.07;84.72
10732;BME280;74907;42.812;23.216;2024-03-08T05:06:30;95586.50;;;4.01;85.12
10732;BME280;74907;42.812;23.216;2024-03-08T05:08:58;95591.59;;;4.02;84.80
10732;BME280;74907;42.812;23.216;2024-03-08T05:11:25;95596.50;;;4.08;85.25
10732;BME280;74907;42.812;23.216;2024-03-08T05:13:53;95601.56;;;4.11;85.86
10732;BME280;74907;42.812;23.216;2024-03-08T05:16:21;95595.06;;;4.01;85.88
10732;BME280;74907;42.812;23.216;2024-03-08T05:18:48;95591.41;;;4.07;85.93
10732;BME280;74907;42.812;23.216;2024-03-08T05:21:16;95606.03;;;4.06;86.18
10732;BME280;74907;42.812;23.216;2024-03-08T05:23:45;95600.03;;;4.06;85.69
10732;BME280;74907;42.812;23.216;2024-03-08T05:26:12;95603.28;;;4.11;85.93
10732;BME280;74907;42.812;23.216;2024-03-08T05:28:39;95611.84;;;4.11;85.99
10732;BME280;74907;42.812;23.216;2024-03-08T05:31:07;95620.28;;;4.17;86.78
10732;BME280;74907;42.812;23.216;2024-03-08T05:33:34;95620.91;;;4.23;86.66
10732;BME280;74907;42.812;23.216;2024-03-08T05:36:01;95623.25;;;4.29;85.90
10732;BME280;74907;42.812;23.216;2024-03-08T05:38:28;95627.09;;;4.41;84.87
10732;BME280;74907;42.812;23.216;2024-03-08T05:40:55;95621.72;;;4.47;83.87
10732;BME280;74907;42.812;23.216;2024-03-08T05:43:21;95628.25;;;4.56;83.62
10732;BME280;74907;42.812;23.216;2024-03-08T05:45:48;95629.31;;;4.50;82.90
10732;BME280;74907;42.812;23.216;2024-03-08T05:48:16;95629.03;;;4.58;82.52
10732;BME280;74907;42.812;23.216;2024-03-08T05:50:44;95636.41;;;4.67;82.23
10732;BME280;74907;42.812;23.216;2024-03-08T05:53:10;95640.63;;;4.69;81.62
10732;BME280;74907;42.812;23.216;2024-03-08T05:55:37;95644.66;;;4.77;81.56
10732;BME280;74907;42.812;23.216;2024-03-08T05:58:04;95644.53;;;4.80;82.07
10732;BME280;74907;42.812;23.216;2024-03-08T06:00:33;95643.50;;;4.84;80.85
10732;BME280;74907;42.812;23.216;2024-03-08T06:03:01;95646.56;;;4.93;80.60
10732;BME280;74907;42.812;23.216;2024-03-08T06:05:30;95647.22;;;4.98;80.58
10732;BME280;74907;42.812;23.216;2024-03-08T06:07:56;95652.44;;;4.97;79.92
10732;BME280;74907;42.812;23.216;2024-03-08T06:10:23;95657.59;;;4.97;79.86
10732;BME280;74907;42.812;23.216;2024-03-08T06:12:50;95665.22;;;5.00;78.79
10732;BME280;74907;42.812;23.216;2024-03-08T06:15:17;95659.03;;;5.04;80.01
10732;BME280;74907;42.812;23.216;2024-03-08T06:17:46;95659.75;;;5.07;80.50
10732;BME280;74907;42.812;23.216;2024-03-08T06:20:13;95657.06;;;5.11;79.66
10732;BME280;74907;42.812;23.216;2024-03-08T06:22:41;95661.44;;;5.08;79.05
10732;BME280;74907;42.812;23.216;2024-03-08T06:25:09;95659.56;;;5.12;78.57
10732;BME280;74907;42.812;23.216;2024-03-08T06:27:39;95664.19;;;5.04;78.49
10732;BME280;74907;42.812;23.216;2024-03-08T06:30:08;95674.72;;;5.21;78.47
10732;BME280;74907;42.812;23.216;2024-03-08T06:32:36;95672.34;;;5.37;78.73
10732;BME280;74907;42.812;23.216;2024-03-08T06:35:03;95674.03;;;5.38;77.89
10732;BME280;74907;42.812;23.216;2024-03-08T06:37:31;95682.75;;;5.35;77.37
10732;BME280;74907;42.812;23.216;2024-03-08T06:39:59;95676.03;;;5.31;76.29
10732;BME280;74907;42.812;23.216;2024-03-08T06:42:27;95670.88;;;5.52;76.38
10732;BME280;74907;42.812;23.216;2024-03-08T06:44:54;95676.22;;;5.67;76.05
10732;BME280;74907;42.812;23.216;2024-03-08T06:47:28;95676.16;;;5.69;76.63
10732;BME280;74907;42.812;23.216;2024-03-08T06:49:55;95677.00;;;5.69;76.96
10732;BME280;74907;42.812;23.216;2024-03-08T06:52:22;95679.66;;;5.68;76.61
10732;BME280;74907;42.812;23.216;2024-03-08T06:54:48;95681.41;;;5.67;75.97
10732;BME280;74907;42.812;23.216;2024-03-08T06:57:19;95685.66;;;5.68;75.12
10732;BME280;74907;42.812;23.216;2024-03-08T06:59:48;95682.59;;;5.81;74.77
10732;BME280;74907;42.812;23.216;2024-03-08T07:02:15;95682.41;;;6.06;74.12
10732;BME280;74907;42.812;23.216;2024-03-08T07:04:41;95676.56;;;6.21;72.67
10732;BME280;74907;42.812;23.216;2024-03-08T07:07:08;95689.34;;;6.24;73.63
10732;BME280;74907;42.812;23.216;2024-03-08T07:09:35;95685.00;;;6.45;73.21
10732;BME280;74907;42.812;23.216;2024-03-08T07:12:02;95690.81;;;6.50;72.39
10732;BME280;74907;42.812;23.216;2024-03-08T07:14:30;95682.41;;;6.63;71.54
10732;BME280;74907;42.812;23.216;2024-03-08T07:16:57;95692.41;;;6.52;72.33
10732;BME280;74907;42.812;23.216;2024-03-08T07:19:24;95685.06;;;6.24;72.18
10732;BME280;74907;42.812;23.216;2024-03-08T07:21:50;95692.53;;;6.30;73.01
10732;BME280;74907;42.812;23.216;2024-03-08T07:24:17;95689.28;;;6.46;75.86
10732;BME280;74907;42.812;23.216;2024-03-08T07:27:04;95700.88;;;6.37;73.03
10732;BME280;74907;42.812;23.216;2024-03-08T07:29:32;95690.59;;;6.36;72.90
10732;BME280;74907;42.812;23.216;2024-03-08T07:31:59;95692.84;;;6.62;74.32
10732;BME280;74907;42.812;23.216;2024-03-08T07:34:38;95694.03;;;6.74;73.21
10732;BME280;74907;42.812;23.216;2024-03-08T07:37:05;95691.94;;;6.82;72.00
10732;BME280;74907;42.812;23.216;2024-03-08T07:39:36;95697.00;;;6.85;70.83
10732;BME280;74907;42.812;23.216;2024-03-08T07:42:04;95700.34;;;6.87;71.45
10732;BME280;74907;42.812;23.216;2024-03-08T07:44:30;95694.50;;;7.19;70.67
10732;BME280;74907;42.812;23.216;2024-03-08T07:46:59;95698.00;;;7.18;69.41
10732;BME280;74907;42.812;23.216;2024-03-08T07:49:25;95689.66;;;7.31;69.96
10732;BME280;74907;42.812;23.216;2024-03-08T07:51:52;95697.44;;;7.48;69.08
10732;BME280;74907;42.812;23.216;2024-03-08T07:54:18;95698.06;;;7.70;69.52
10732;BME280;74907;42.812;23.216;2024-03-08T07:56:45;95691.22;;;8.04;67.59
10732;BME280;74907;42.812;23.216;2024-03-08T07:59:12;95684.66;;;8.14;66.70
10732;BME280;74907;42.812;23.216;2024-03-08T08:01:38;95687.16;;;8.33;67.85
10732;BME280;74907;42.812;23.216;2024-03-08T08:04:06;95676.94;;;8.63;66.88
10732;BME280;74907;42.812;23.216;2024-03-08T08:06:37;95682.13;;;8.63;65.63
10732;BME280;74907;42.812;23.216;2024-03-08T08:09:06;95681.84;;;8.36;63.42
10732;BME280;74907;42.812;23.216;2024-03-08T08:11:35;95673.06;;;8.54;64.83
10732;BME280;74907;42.812;23.216;2024-03-08T08:14:02;95673.81;;;8.89;62.30
10732;BME280;74907;42.812;23.216;2024-03-08T08:16:28;95674.63;;;8.90;63.42
10732;BME280;74907;42.812;23.216;2024-03-08T08:18:55;95676.78;;;8.81;62.60
10732;BME280;74907;42.812;23.216;2024-03-08T08:21:23;95681.84;;;9.00;63.42
10732;BME280;74907;42.812;23.216;2024-03-08T08:23:51;95683.00;;;8.95;62.05
10732;BME280;74907;42.812;23.216;2024-03-08T08:26:18;95677.81;;;9.10;63.78
10732;BME280;74907;42.812;23.216;2024-03-08T08:28:46;95673.03;;;9.18;61.08
10732;BME280;74907;42.812;23.216;2024-03-08T08:31:13;95684.94;;;9.07;62.09
10732;BME280;74907;42.812;23.216;2024-03-08T08:33:40;95678.88;;;9.22;61.33
10732;BME280;74907;42.812;23.216;2024-03-08T08:36:07;95686.94;;;9.17;61.08
10732;BME280;74907;42.812;23.216;2024-03-08T08:38:36;95683.19;;;8.92;60.68
10732;BME280;74907;42.812;23.216;2024-03-08T08:41:04;95676.41;;;8.89;61.05
10732;BME280;74907;42.812;23.216;2024-03-08T08:43:31;95672.97;;;9.04;63.04
10732;BME280;74907;42.812;23.216;2024-03-08T08:45:59;95680.56;;;9.07;61.78
10732;BME280;74907;42.812;23.216;2024-03-08T08:48:26;95670.66;;;8.82;61.96
10732;BME280;74907;42.812;23.216;2024-03-08T08:50:54;95671.28;;;8.88;63.07
10732;BME280;74907;42.812;23.216;2024-03-08T08:53:21;95667.00;;;9.02;64.17
10732;BME280;74907;42.812;23.216;2024-03-08T08:55:50;95672.78;;;9.07;61.87
10732;BME280;74907;42.812;23.216;2024-03-08T08:58:18;95659.72;;;9.09;61.94
10732;BME280;74907;42.812;23.216;2024-03-08T09:00:45;95669.25;;;9.24;61.74
10732;BME280;74907;42.812;23.216;2024-03-08T09:03:11;95663.41;;;9.05;62.06
10732;BME280;74907;42.812;23.216;2024-03-08T09:05:38;95657.78;;;9.12;62.43
10732;BME280;74907;42.812;23.216;2024-03-08T09:08:08;95660.84;;;9.51;61.75
10732;BME280;74907;42.812;23.216;2024-03-08T09:10:35;95660.19;;;9.47;60.14
10732;BME280;74907;42.812;23.216;2024-03-08T09:13:03;95655.56;;;9.52;60.62
10732;BME280;74907;42.812;23.216;2024-03-08T09:15:30;95659.72;;;9.09;60.05
10732;BME280;74907;42.812;23.216;2024-03-08T09:17:57;95658.94;;;9.38;60.58
10732;BME280;74907;42.812;23.216;2024-03-08T09:20:24;95657.09;;;9.25;60.37
10732;BME280;74907;42.812;23.216;2024-03-08T09:22:51;95654.53;;;9.09;61.13
10732;BME280;74907;42.812;23.216;2024-03-08T09:25:17;95653.31;;;9.46;63.04
10732;BME280;74907;42.812;23.216;2024-03-08T09:27:44;95653.47;;;9.43;60.64
10732;BME280;74907;42.812;23.216;2024-03-08T09:30:13;95652.97;;;9.36;60.72
10732;BME280;74907;42.812;23.216;2024-03-08T09:32:40;95655.66;;;9.51;61.21
10732;BME280;74907;42.812;23.216;2024-03-08T09:35:09;95656.38;;;9.53;61.59
10732;BME280;74907;42.812;23.216;2024-03-08T09:37:36;95664.81;;;9.10;62.64
10732;BME280;74907;42.812;23.216;2024-03-08T09:40:04;95662.88;;;9.45;62.62
10732;BME280;74907;42.812;23.216;2024-03-08T09:42:34;95654.09;;;9.62;63.66
10732;BME280;74907;42.812;23.216;2024-03-08T09:45:04;95656.34;;;9.38;62.17
10732;BME280;74907;42.812;23.216;2024-03-08T09:47:38;95662.34;;;9.55;64.53
10732;BME280;74907;42.812;23.216;2024-03-08T09:50:06;95636.56;;;9.66;63.17
10732;BME280;74907;42.812;23.216;2024-03-08T09:52:34;95664.31;;;9.65;62.61
10732;BME280;74907;42.812;23.216;2024-03-08T09:55:06;95660.84;;;9.51;61.70
10732;BME280;74907;42.812;23.216;2024-03-08T09:57:33;95661.44;;;9.40;62.73
10732;BME280;74907;42.812;23.216;2024-03-08T10:00:00;95659.34;;;9.46;61.69
10732;BME280;74907;42.812;23.216;2024-03-08T10:02:27;95661.78;;;9.34;60.81
10732;BME280;74907;42.812;23.216;2024-03-08T10:04:57;95658.44;;;9.16;59.69
10732;BME280;74907;42.812;23.216;2024-03-08T10:07:23;95654.06;;;9.32;60.18
10732;BME280;74907;42.812;23.216;2024-03-08T10:09:52;95657.00;;;9.26;59.74
10732;BME280;74907;42.812;23.216;2024-03-08T10:12:19;95663.22;;;9.24;60.05
10732;BME280;74907;42.812;23.216;2024-03-08T10:14:46;95669.00;;;9.29;59.89
10732;BME280;74907;42.812;23.216;2024-03-08T10:17:13;95660.69;;;9.22;59.97
10732;BME280;74907;42.812;23.216;2024-03-08T10:19:49;95649.03;;;9.29;59.73
10732;BME280;74907;42.812;23.216;2024-03-08T10:22:18;95656.31;;;9.54;60.38
10732;BME280;74907;42.812;23.216;2024-03-08T10:24:45;95650.50;;;9.79;60.66
10732;BME280;74907;42.812;23.216;2024-03-08T10:27:12;95651.84;;;9.86;59.16
10732;BME280;74907;42.812;23.216;2024-03-08T10:29:39;95652.91;;;9.98;61.16
10732;BME280;74907;42.812;23.216;2024-03-08T10:32:09;95641.38;;;10.02;58.41
10732;BME280;74907;42.812;23.216;2024-03-08T10:34:37;95641.50;;;10.15;59.22
10732;BME280;74907;42.812;23.216;2024-03-08T10:37:04;95646.34;;;10.35;58.25
10732;BME280;74907;42.812;23.216;2024-03-08T10:39:35;95633.34;;;10.49;56.17
10732;BME280;74907;42.812;23.216;2024-03-08T10:42:03;95637.44;;;10.39;58.23
10732;BME280;74907;42.812;23.216;2024-03-08T10:44:44;95635.84;;;10.36;56.76
10732;BME280;74907;42.812;23.216;2024-03-08T10:47:18;95631.22;;;10.56;58.62
10732;BME280;74907;42.812;23.216;2024-03-08T10:49:51;95625.28;;;10.54;58.32
10732;BME280;74907;42.812;23.216;2024-03-08T10:52:20;95638.00;;;10.44;59.64
10732;BME280;74907;42.812;23.216;2024-03-08T10:54:49;95627.13;;;10.23;58.16
10732;BME280;74907;42.812;23.216;2024-03-08T10:57:19;95628.94;;;10.07;58.90
10732;BME280;74907;42.812;23.216;2024-03-08T10:59:49;95632.94;;;10.12;59.27
10732;BME280;74907;42.812;23.216;2024-03-08T11:02:17;95628.59;;;9.83;59.35
10732;BME280;74907;42.812;23.216;2024-03-08T11:04:49;95621.88;;;10.09;57.75
10732;BME280;74907;42.812;23.216;2024-03-08T11:07:19;95625.44;;;10.22;59.96
10732;BME280;74907;42.812;23.216;2024-03-08T11:09:48;95614.63;;;10.00;59.62
10732;BME280;74907;42.812;23.216;2024-03-08T11:12:23;95613.44;;;10.20;58.99
10732;BME280;74907;42.812;23.216;2024-03-08T11:14:56;95604.28;;;10.42;59.00
10732;BME280;74907;42.812;23.216;2024-03-08T11:17:40;95602.50;;;10.43;57.84
10732;BME280;74907;42.812;23.216;2024-03-08T11:20:11;95607.88;;;10.40;58.01
10732;BME280;74907;42.812;23.216;2024-03-08T11:22:42;95600.44;;;10.48;58.42
10732;BME280;74907;42.812;23.216;2024-03-08T11:25:36;95597.19;;;10.59;58.59
10732;BME280;74907;42.812;23.216;2024-03-08T11:28:17;95599.81;;;10.45;58.01
10732;BME280;74907;42.812;23.216;2024-03-08T11:30:45;95603.22;;;10.02;57.99
10732;BME280;74907;42.812;23.216;2024-03-08T11:33:14;95601.59;;;9.86;59.10
10732;BME280;74907;42.812;23.216;2024-03-08T11:35:42;95599.25;;;9.67;60.04
10732;BME280;74907;42.812;23.216;2024-03-08T11:38:11;95596.47;;;9.70;60.35
10732;BME280;74907;42.812;23.216;2024-03-08T11:40:41;95596.81;;;9.64;60.04
10732;BME280;74907;42.812;23.216;2024-03-08T11:43:08;95595.53;;;9.71;60.21
10732;BME280;74907;42.812;23.216;2024-03-08T11:45:35;95596.00;;;9.63;60.74
10732;BME280;74907;42.812;23.216;2024-03-08T11:48:03;95590.69;;;9.65;60.68
10732;BME280;74907;42.812;23.216;2024-03-08T11:50:30;95591.63;;;9.78;59.66
10732;BME280;74907;42.812;23.216;2024-03-08T11:53:01;95588.47;;;9.73;60.72
10732;BME280;74907;42.812;23.216;2024-03-08T11:55:28;95590.16;;;9.88;61.91
10732;BME280;74907;42.812;23.216;2024-03-08T11:58:01;95586.06;;;9.84;60.13
10732;BME280;74907;42.812;23.216;2024-03-08T12:00:28;95586.56;;;9.91;60.32
10732;BME280;74907;42.812;23.216;2024-03-08T12:03:04;95578.69;;;9.92;59.80
10732;BME280;74907;42.812;23.216;2024-03-08T12:05:31;95583.59;;;9.97;59.96
10732;BME280;74907;42.812;23.216;2024-03-08T12:07:59;95584.34;;;10.13;60.38
10732;BME280;74907;42.812;23.216;2024-03-08T12:10:27;95580.81;;;10.14;60.27
10732;BME280;74907;42.812;23.216;2024-03-08T12:12:56;95570.25;;;10.31;58.90
10732;BME280;74907;42.812;23.216;2024-03-08T12:15:26;95567.84;;;10.42;59.59
10732;BME280;74907;42.812;23.216;2024-03-08T12:17:54;95571.69;;;10.64;61.48
10732;BME280;74907;42.812;23.216;2024-03-08T12:20:23;95576.59;;;10.68;58.93
10732;BME280;74907;42.812;23.216;2024-03-08T12:22:51;95584.34;;;10.13;60.64
10732;BME280;74907;42.812;23.216;2024-03-08T12:25:19;95569.50;;;10.29;60.34
10732;BME280;74907;42.812;23.216;2024-03-08T12:27:46;95571.91;;;10.32;60.89
10732;BME280;74907;42.812;23.216;2024-03-08T12:30:21;95573.13;;;10.27;60.87
10732;BME280;74907;42.812;23.216;2024-03-08T12:32:52;95563.81;;;10.08;59.33
10732;BME280;74907;42.812;23.216;2024-03-08T12:35:20;95575.50;;;9.87;58.75
10732;BME280;74907;42.812;23.216;2024-03-08T12:37:49;95573.03;;;10.00;59.56
10732;BME280;74907;42.812;23.216;2024-03-08T12:40:17;95568.25;;;9.78;59.44
10732;BME280;74907;42.812;23.216;2024-03-08T12:42:44;95561.13;;;9.96;59.70
10732;BME280;74907;42.812;23.216;2024-03-08T12:45:13;95557.31;;;10.16;60.35
10732;BME280;74907;42.812;23.216;2024-03-08T12:47:40;95556.22;;;9.91;60.33
10732;BME280;74907;42.812;23.216;2024-03-08T12:50:10;95561.22;;;9.94;59.48
10732;BME280;74907;42.812;23.216;2024-03-08T12:52:37;95554.25;;;10.09;60.10
10732;BME280;74907;42.812;23.216;2024-03-08T12:55:04;95545.88;;;10.04;59.36
10732;BME280;74907;42.812;23.216;2024-03-08T12:57:33;95554.34;;;10.07;58.72
10732;BME280;74907;42.812;23.216;2024-03-08T13:00:01;95555.38;;;9.91;60.19
10732;BME280;74907;42.812;23.216;2024-03-08T13:02:28;95563.91;;;9.93;60.48
10732;BME280;74907;42.812;23.216;2024-03-08T13:04:56;95553.84;;;9.87;59.84